createdAt,value
2023-03-26T00:02:15.316Z,4.38
2023-03-26T00:04:47.516Z,3.30
2023-03-26T00:07:18.089Z,2.93
2023-03-26T00:09:48.076Z,3.47
2023-03-26T00:12:15.531Z,3.10
2023-03-26T00:14:47.872Z,2.88
2023-03-26T00:17:15.154Z,2.88
2023-03-26T00:19:43.900Z,5.18
2023-03-26T00:22:21.909Z,2.95
2023-03-26T00:24:51.465Z,3.40
2023-03-26T00:27:24.045Z,3.22
2023-03-26T00:29:57.456Z,3.25
2023-03-26T00:32:28.434Z,3.35
2023-03-26T00:34:57.359Z,3.70
2023-03-26T00:37:30.134Z,4.18
2023-03-26T00:40:10.145Z,3.42
2023-03-26T00:42:40.012Z,3.92
2023-03-26T00:45:10.631Z,3.33
2023-03-26T00:47:42.639Z,3.70
2023-03-26T00:50:15.733Z,3.28
2023-03-26T00:52:48.768Z,3.35
2023-03-26T00:57:50.188Z,4.35
2023-03-26T01:00:23.602Z,4.20
2023-03-26T01:03:01.092Z,3.60
2023-03-26T01:05:37.047Z,3.72
2023-03-26T01:08:17.360Z,3.20
2023-03-26T01:10:50.923Z,3.22
2023-03-26T01:13:29.455Z,3.22
2023-03-26T01:16:03.377Z,3.88
2023-03-26T01:18:47.362Z,3.15
2023-03-26T01:21:22.961Z,3.38
2023-03-26T01:24:05.288Z,3.83
2023-03-26T01:26:57.285Z,3.20
2023-03-26T01:29:42.389Z,3.63
2023-03-26T01:33:01.143Z,3.45
2023-03-26T01:35:43.332Z,3.28
2023-03-26T01:38:48.311Z,3.80
2023-03-26T01:41:38.146Z,3.97
2023-03-26T01:44:35.822Z,3.95
2023-03-26T01:47:05.286Z,3.10
2023-03-26T01:49:32.951Z,3.25
2023-03-26T01:51:59.852Z,3.42
2023-03-26T01:54:30.324Z,3.40
2023-03-26T01:57:15.648Z,3.00
2023-03-26T02:00:04.841Z,3.30
2023-03-26T02:02:32.071Z,3.13
2023-03-26T02:05:09.808Z,3.60
2023-03-26T02:08:12.222Z,3.65
2023-03-26T02:10:44.919Z,3.58
2023-03-26T02:13:13.330Z,3.15
2023-03-26T02:15:41.117Z,3.25
2023-03-26T02:18:10.977Z,3.03
2023-03-26T02:20:38.225Z,3.22
2023-03-26T02:23:06.119Z,3.20
2023-03-26T02:25:35.563Z,2.97
2023-03-26T02:28:02.956Z,2.72
2023-03-26T02:30:29.998Z,3.25
2023-03-26T02:32:59.472Z,3.17
2023-03-26T02:35:27.029Z,3.28
2023-03-26T02:37:53.948Z,2.60
2023-03-26T02:40:22.507Z,3.78
2023-03-26T02:42:49.930Z,2.75
2023-03-26T02:45:17.811Z,3.30
2023-03-26T02:47:46.151Z,3.22
2023-03-26T02:50:13.202Z,2.83
2023-03-26T02:52:40.294Z,3.05
2023-03-26T02:55:07.831Z,2.35
2023-03-26T02:57:34.791Z,3.33
2023-03-26T03:00:04.288Z,3.47
2023-03-26T03:02:31.403Z,3.20
2023-03-26T03:05:01.698Z,3.42
2023-03-26T03:07:29.161Z,2.85
2023-03-26T03:09:56.017Z,3.75
2023-03-26T03:12:22.940Z,2.97
2023-03-26T03:14:49.848Z,3.53
2023-03-26T03:17:16.772Z,3.58
2023-03-26T03:19:43.585Z,3.25
2023-03-26T03:22:10.552Z,3.28
2023-03-26T03:24:38.985Z,3.25
2023-03-26T03:27:06.212Z,4.63
2023-03-26T03:29:33.048Z,2.47
2023-03-26T03:32:00.305Z,3.42
2023-03-26T03:34:27.475Z,2.80
2023-03-26T03:36:54.451Z,2.75
2023-03-26T03:39:21.740Z,3.10
2023-03-26T03:41:49.656Z,2.92
2023-03-26T03:44:16.987Z,2.92
2023-03-26T03:46:43.899Z,3.53
2023-03-26T03:49:11.029Z,3.72
2023-03-26T03:51:37.833Z,3.50
2023-03-26T03:54:05.045Z,3.50
2023-03-26T03:56:31.936Z,3.20
2023-03-26T03:58:59.921Z,3.00
2023-03-26T04:01:26.881Z,3.15
2023-03-26T04:03:54.153Z,2.75
2023-03-26T04:06:21.358Z,3.17
2023-03-26T04:08:48.630Z,3.50
2023-03-26T04:11:15.881Z,3.50
2023-03-26T04:13:43.259Z,3.60
2023-03-26T04:16:10.750Z,3.35
2023-03-26T04:18:38.696Z,3.55
2023-03-26T04:21:07.463Z,3.03
2023-03-26T04:23:35.338Z,3.45
2023-03-26T04:26:05.580Z,3.13
2023-03-26T04:28:42.873Z,4.35
2023-03-26T04:31:13.915Z,2.95
2023-03-26T04:33:41.474Z,3.10
2023-03-26T04:36:10.519Z,3.83
2023-03-26T04:38:43.826Z,2.97
2023-03-26T04:41:14.379Z,2.97
2023-03-26T04:43:47.269Z,3.20
2023-03-26T04:46:14.771Z,3.38
2023-03-26T04:48:41.690Z,3.15
2023-03-26T04:51:10.199Z,3.50
2023-03-26T04:53:37.246Z,3.15
2023-03-26T04:56:12.836Z,3.33
2023-03-26T04:58:40.163Z,2.97
2023-03-26T05:01:10.253Z,3.65
2023-03-26T05:03:39.241Z,3.25
2023-03-26T05:06:06.700Z,3.35
2023-03-26T05:08:33.489Z,3.72
2023-03-26T05:11:00.450Z,3.58
2023-03-26T05:13:27.270Z,3.97
2023-03-26T05:15:55.634Z,3.42
2023-03-26T05:18:22.484Z,3.03
2023-03-26T05:20:49.650Z,2.47
2023-03-26T05:23:16.920Z,3.42
2023-03-26T05:25:43.715Z,3.80
2023-03-26T05:28:11.765Z,3.60
2023-03-26T05:30:39.096Z,3.10
2023-03-26T05:33:06.648Z,3.70
2023-03-26T05:35:33.629Z,3.92
2023-03-26T05:38:00.612Z,3.70
2023-03-26T05:40:27.480Z,3.30
2023-03-26T05:42:54.692Z,3.35
2023-03-26T05:45:22.636Z,3.03
2023-03-26T05:47:54.243Z,4.43
2023-03-26T05:50:21.462Z,2.97
2023-03-26T05:52:48.441Z,3.22
2023-03-26T05:55:16.434Z,3.92
2023-03-26T05:57:43.790Z,3.45
2023-03-26T06:00:12.195Z,3.55
2023-03-26T06:02:39.282Z,3.83
2023-03-26T06:05:07.847Z,3.72
2023-03-26T06:07:35.197Z,4.38
2023-03-26T06:10:03.101Z,4.72
2023-03-26T06:12:30.271Z,3.00
2023-03-26T06:14:57.311Z,3.25
2023-03-26T06:17:24.420Z,3.72
2023-03-26T06:19:56.093Z,4.18
2023-03-26T06:22:23.409Z,4.53
2023-03-26T06:24:53.163Z,4.63
2023-03-26T06:27:19.992Z,4.38
2023-03-26T06:29:48.135Z,4.63
2023-03-26T06:32:20.054Z,4.10
2023-03-26T06:34:47.850Z,3.92
2023-03-26T06:37:15.082Z,4.05
2023-03-26T06:39:42.085Z,3.72
2023-03-26T06:42:09.011Z,4.78
2023-03-26T06:44:35.994Z,4.18
2023-03-26T06:47:02.797Z,3.85
2023-03-26T06:49:29.740Z,3.50
2023-03-26T06:51:57.884Z,4.15
2023-03-26T06:54:24.906Z,4.55
2023-03-26T06:56:51.748Z,3.38
2023-03-26T06:59:19.089Z,3.92
2023-03-26T07:01:46.782Z,4.28
2023-03-26T07:04:13.783Z,4.32
2023-03-26T07:06:40.746Z,4.50
2023-03-26T07:09:07.637Z,4.07
2023-03-26T07:11:34.613Z,3.63
2023-03-26T07:14:01.781Z,4.68
2023-03-26T07:16:29.121Z,4.70
2023-03-26T07:18:56.181Z,4.75
2023-03-26T07:21:23.330Z,4.70
2023-03-26T07:23:52.101Z,4.53
2023-03-26T07:26:28.329Z,4.75
2023-03-26T07:29:15.702Z,5.13
2023-03-26T07:31:49.386Z,5.28
2023-03-26T07:34:19.188Z,4.80
2023-03-26T07:36:53.588Z,4.68
2023-03-26T07:39:38.855Z,4.88
2023-03-26T07:42:45.888Z,4.85
2023-03-26T07:45:39.885Z,4.57
2023-03-26T07:48:20.327Z,4.93
2023-03-26T07:50:48.496Z,5.00
2023-03-26T07:53:15.762Z,4.63
2023-03-26T07:56:05.287Z,4.32
2023-03-26T07:58:50.605Z,4.70
2023-03-26T08:01:17.652Z,4.57
2023-03-26T08:04:23.334Z,5.05
2023-03-26T08:07:03.753Z,4.32
2023-03-26T08:09:35.121Z,4.35
2023-03-26T08:12:23.170Z,5.00
2023-03-26T08:15:08.924Z,3.90
2023-03-26T08:17:38.574Z,3.50
2023-03-26T08:20:21.619Z,3.70
2023-03-26T08:23:02.191Z,4.00
2023-03-26T08:26:06.190Z,3.85
2023-03-26T08:28:41.944Z,4.03
2023-03-26T08:31:11.467Z,4.05
2023-03-26T08:33:40.870Z,4.20
2023-03-26T08:36:09.352Z,4.07
2023-03-26T08:38:36.587Z,4.18
2023-03-26T08:41:12.519Z,4.28
2023-03-26T08:43:56.568Z,4.43
2023-03-26T08:46:53.503Z,4.63
2023-03-26T08:49:51.541Z,4.68
2023-03-26T08:52:45.330Z,4.20
2023-03-26T08:55:52.482Z,4.25
2023-03-26T08:58:44.006Z,4.32
2023-03-26T09:01:41.710Z,4.38
2023-03-26T09:04:14.687Z,4.55
2023-03-26T09:09:35.871Z,3.40
2023-03-26T09:12:28.227Z,4.10
2023-03-26T09:15:19.940Z,3.47
2023-03-26T09:17:52.393Z,3.15
2023-03-26T09:20:35.521Z,3.30
2023-03-26T09:26:02.999Z,3.67
2023-03-26T09:28:51.944Z,3.47
2023-03-26T09:31:40.826Z,3.00
2023-03-26T09:34:25.520Z,2.90
2023-03-26T09:37:15.790Z,3.20
2023-03-26T09:40:14.346Z,3.28
2023-03-26T09:43:01.276Z,2.50
2023-03-26T09:45:56.311Z,2.63
2023-03-26T09:49:02.187Z,2.60
2023-03-26T09:51:55.599Z,2.28
2023-03-26T09:54:44.451Z,2.20
2023-03-26T09:57:45.946Z,2.50
2023-03-26T10:00:50.086Z,2.33
2023-03-26T10:03:32.119Z,2.85
2023-03-26T10:06:09.792Z,2.13
2023-03-26T10:08:47.877Z,1.90
2023-03-26T10:11:36.682Z,1.90
2023-03-26T10:14:19.178Z,1.40
2023-03-26T10:17:19.828Z,1.30
2023-03-26T10:19:57.467Z,1.80
2023-03-26T10:22:43.152Z,1.58
2023-03-26T10:25:28.837Z,1.73
2023-03-26T10:28:11.155Z,2.05
2023-03-26T10:31:00.584Z,2.00
2023-03-26T10:33:45.810Z,2.00
2023-03-26T10:36:25.724Z,2.38
2023-03-26T10:38:59.509Z,1.80
2023-03-26T10:41:36.093Z,2.58
2023-03-26T10:44:43.520Z,2.45
2023-03-26T10:47:29.200Z,1.80
2023-03-26T10:50:23.729Z,2.22
2023-03-26T10:55:41.878Z,2.20
2023-03-26T10:58:17.205Z,3.05
2023-03-26T11:00:54.842Z,2.30
2023-03-26T11:03:44.268Z,2.28
2023-03-26T11:06:23.859Z,1.98
2023-03-26T11:09:18.144Z,2.20
2023-03-26T11:12:26.599Z,2.05
2023-03-26T11:15:14.611Z,2.05
2023-03-26T11:18:03.541Z,2.22
2023-03-26T11:20:51.024Z,2.25
2023-03-26T11:23:39.342Z,2.50
2023-03-26T11:26:15.551Z,2.55
2023-03-26T11:29:03.292Z,2.13
2023-03-26T11:31:49.304Z,1.88
2023-03-26T11:34:26.079Z,2.15
2023-03-26T11:36:56.635Z,1.88
2023-03-26T11:39:30.752Z,1.63
2023-03-26T11:42:07.516Z,1.55
2023-03-26T11:44:42.882Z,1.13
2023-03-26T11:47:15.392Z,1.02
2023-03-26T11:49:44.532Z,0.93
2023-03-26T11:52:12.661Z,0.98
2023-03-26T11:54:39.676Z,0.68
2023-03-26T11:57:14.081Z,0.70
2023-03-26T12:00:16.874Z,0.22
2023-03-26T12:02:46.396Z,0.43
2023-03-26T12:05:24.979Z,0.28
2023-03-26T12:07:58.173Z,0.35
2023-03-26T12:10:38.120Z,0.30
2023-03-26T12:13:28.339Z,0.40
2023-03-26T12:16:17.556Z,0.30
2023-03-26T12:19:17.817Z,0.30
2023-03-26T12:21:49.973Z,0.73
2023-03-26T12:24:37.273Z,1.30
2023-03-26T12:27:25.555Z,0.90
2023-03-26T12:30:00.158Z,0.73
2023-03-26T12:32:45.328Z,0.50
2023-03-26T12:35:19.869Z,0.38
2023-03-26T12:37:47.807Z,0.32
2023-03-26T12:40:37.172Z,0.28
2023-03-26T12:44:46.502Z,0.32
2023-03-26T12:47:56.570Z,0.50
2023-03-26T12:49:20.250Z,0.30
2023-03-26T12:51:52.649Z,0.40
2023-03-26T12:54:48.384Z,0.40
2023-03-26T12:57:26.110Z,0.38
2023-03-26T13:00:21.454Z,0.30
2023-03-26T13:02:51.331Z,0.40
2023-03-26T13:05:36.693Z,0.30
2023-03-26T13:08:33.102Z,0.40
2023-03-26T13:11:21.713Z,0.50
2023-03-26T13:14:03.592Z,0.30
2023-03-26T13:16:53.927Z,0.50
2023-03-26T13:19:24.054Z,0.50
2023-03-26T13:22:21.789Z,0.40
2023-03-26T13:25:01.432Z,0.70
2023-03-26T13:27:49.220Z,0.52
2023-03-26T13:30:28.321Z,0.50
2023-03-26T13:33:11.698Z,0.40
2023-03-26T13:35:47.511Z,0.38
2023-03-26T13:38:27.020Z,0.70
2023-03-26T13:41:38.046Z,0.70
2023-03-26T13:44:14.114Z,0.52
2023-03-26T13:46:52.408Z,0.40
2023-03-26T13:49:37.438Z,0.57
2023-03-26T13:52:12.246Z,0.50
2023-03-26T13:54:52.610Z,0.50
2023-03-26T13:57:41.858Z,0.40
2023-03-26T14:00:18.070Z,0.60
2023-03-26T14:02:53.682Z,0.57
2023-03-26T14:05:42.478Z,0.50
2023-03-26T14:08:25.556Z,0.40
2023-03-26T14:11:01.969Z,0.40
2023-03-26T14:14:04.263Z,0.50
2023-03-26T14:16:44.632Z,0.65
2023-03-26T14:19:41.285Z,0.77
2023-03-26T14:22:33.707Z,0.90
2023-03-26T14:25:15.238Z,0.93
2023-03-26T14:28:14.864Z,1.30
2023-03-26T14:30:56.948Z,1.50
2023-03-26T14:33:48.535Z,1.23
2023-03-26T14:36:46.700Z,1.10
2023-03-26T14:39:32.373Z,1.73
2023-03-26T14:42:16.238Z,1.30
2023-03-26T14:45:15.767Z,1.30
2023-03-26T14:47:52.682Z,1.10
2023-03-26T14:50:20.625Z,1.40
2023-03-26T14:52:49.416Z,1.92
2023-03-26T14:55:43.209Z,2.00
2023-03-26T14:58:28.291Z,2.92
2023-03-26T15:01:17.378Z,2.58
2023-03-26T15:04:12.361Z,2.72
2023-03-26T15:06:51.459Z,2.65
2023-03-26T15:09:33.385Z,2.85
2023-03-26T15:12:23.278Z,3.45
2023-03-26T15:15:20.638Z,3.80
2023-03-26T15:18:09.470Z,4.05
2023-03-26T15:20:45.212Z,4.28
2023-03-26T15:23:39.503Z,3.95
2023-03-26T15:26:41.750Z,4.32
2023-03-26T15:29:34.088Z,4.03
2023-03-26T15:32:40.598Z,3.55
2023-03-26T15:35:07.670Z,3.95
2023-03-26T15:37:59.312Z,3.72
2023-03-26T15:40:38.657Z,3.80
2023-03-26T15:43:14.185Z,3.03
2023-03-26T15:45:54.254Z,2.90
2023-03-26T15:48:27.631Z,3.13
2023-03-26T15:51:18.757Z,3.20
2023-03-26T15:54:14.808Z,3.35
2023-03-26T15:56:49.249Z,3.30
2023-03-26T15:59:37.290Z,3.90
2023-03-26T16:02:07.878Z,3.33
2023-03-26T16:04:58.959Z,3.70
2023-03-26T16:07:39.422Z,3.03
2023-03-26T16:10:21.606Z,2.42
2023-03-26T16:12:55.220Z,2.53
2023-03-26T16:15:29.808Z,2.45
2023-03-26T16:18:10.942Z,2.22
2023-03-26T16:20:50.831Z,1.95
2023-03-26T16:23:29.547Z,2.20
2023-03-26T16:26:12.966Z,2.33
2023-03-26T16:28:45.760Z,1.50
2023-03-26T16:31:23.362Z,1.63
2023-03-26T16:34:05.413Z,1.20
2023-03-26T16:36:35.063Z,1.23
2023-03-26T16:39:08.626Z,0.80
2023-03-26T16:41:56.960Z,1.17
2023-03-26T16:44:39.047Z,1.45
2023-03-26T16:47:24.936Z,1.38
2023-03-26T16:50:15.126Z,0.95
2023-03-26T16:52:45.231Z,1.60
2023-03-26T16:55:31.128Z,1.15
2023-03-26T16:58:33.937Z,1.02
2023-03-26T17:01:21.645Z,1.30
2023-03-26T17:03:58.890Z,1.13
2023-03-26T17:07:01.740Z,1.02
2023-03-26T17:09:51.909Z,1.20
2023-03-26T17:12:33.974Z,1.10
2023-03-26T17:15:26.520Z,0.85
2023-03-26T17:18:15.972Z,1.47
2023-03-26T17:21:17.775Z,0.90
2023-03-26T17:23:54.619Z,1.10
2023-03-26T17:26:43.064Z,1.05
2023-03-26T17:29:28.173Z,1.20
2023-03-26T17:32:14.627Z,1.48
2023-03-26T17:34:50.600Z,1.00
2023-03-26T17:37:17.358Z,1.27
2023-03-26T17:39:46.424Z,0.90
2023-03-26T17:42:16.569Z,1.45
2023-03-26T17:44:44.872Z,1.67
2023-03-26T17:47:30.050Z,1.70
2023-03-26T17:50:42.127Z,4.00
2023-03-26T17:53:30.904Z,2.38
2023-03-26T17:56:03.328Z,2.40
2023-03-26T17:58:36.596Z,1.90
2023-03-26T18:01:13.001Z,2.08
2023-03-26T18:03:54.495Z,2.00
2023-03-26T18:06:30.454Z,1.70
2023-03-26T18:09:23.156Z,1.80
2023-03-26T18:11:55.824Z,2.58
2023-03-26T18:14:25.797Z,1.92
2023-03-26T18:16:57.019Z,2.00
2023-03-26T18:19:24.959Z,2.30
2023-03-26T18:21:57.034Z,2.50
2023-03-26T18:24:42.620Z,2.40
2023-03-26T18:27:19.190Z,2.45
2023-03-26T18:30:01.702Z,2.63
2023-03-26T18:32:33.792Z,2.85
2023-03-26T18:35:19.191Z,3.00
2023-03-26T18:37:47.516Z,2.72
2023-03-26T18:40:23.571Z,2.58
2023-03-26T18:42:53.201Z,2.88
2023-03-26T18:45:41.383Z,2.90
2023-03-26T18:48:19.458Z,3.25
2023-03-26T18:50:55.452Z,4.63
2023-03-26T18:53:32.460Z,3.00
2023-03-26T18:55:59.782Z,3.45
2023-03-26T18:58:32.835Z,4.15
2023-03-26T19:01:08.559Z,4.25
2023-03-26T19:03:44.030Z,5.15
2023-03-26T19:06:15.211Z,5.37
2023-03-26T19:08:45.223Z,7.53
2023-03-26T19:11:16.043Z,6.90
2023-03-26T19:13:43.400Z,6.80
2023-03-26T19:16:24.312Z,8.60
2023-03-26T19:18:52.406Z,9.45
2023-03-26T19:21:23.339Z,9.95
2023-03-26T19:23:52.838Z,9.10
2023-03-26T19:26:19.991Z,9.27
2023-03-26T19:28:53.583Z,8.52
2023-03-26T19:31:38.775Z,8.07
2023-03-26T19:34:23.800Z,7.80
2023-03-26T19:37:04.090Z,8.05
2023-03-26T19:39:46.933Z,8.13
2023-03-26T19:42:18.242Z,5.38
2023-03-26T19:44:45.843Z,5.45
2023-03-26T19:47:31.942Z,5.88
2023-03-26T19:50:30.952Z,6.30
2023-03-26T19:53:15.197Z,5.68
2023-03-26T19:55:57.968Z,6.18
2023-03-26T19:58:28.109Z,5.38
2023-03-26T20:00:56.909Z,6.45
2023-03-26T20:03:43.576Z,5.85
2023-03-26T20:06:16.181Z,4.55
2023-03-26T20:08:43.816Z,5.65
2023-03-26T20:11:21.625Z,5.70
2023-03-26T20:13:50.178Z,4.95
2023-03-26T20:16:29.396Z,5.55
2023-03-26T20:18:57.310Z,5.40
2023-03-26T20:21:25.786Z,5.45
2023-03-26T20:23:53.896Z,5.68
2023-03-26T20:26:22.759Z,4.95
2023-03-26T20:28:53.432Z,5.40
2023-03-26T20:31:25.461Z,4.55
2023-03-26T20:33:53.731Z,4.28
2023-03-26T20:36:33.256Z,4.57
2023-03-26T20:39:06.342Z,3.70
2023-03-26T20:41:34.672Z,4.75
2023-03-26T20:44:04.179Z,3.63
2023-03-26T20:46:31.984Z,4.38
2023-03-26T20:49:01.938Z,3.58
2023-03-26T20:51:29.508Z,3.88
2023-03-26T20:53:58.863Z,3.30
2023-03-26T20:56:25.703Z,3.92
2023-03-26T20:59:09.677Z,3.38
2023-03-26T21:01:38.319Z,3.90
2023-03-26T21:04:06.304Z,4.97
2023-03-26T21:06:33.848Z,3.92
2023-03-26T21:09:01.416Z,4.10
2023-03-26T21:11:52.258Z,2.72
2023-03-26T21:14:24.846Z,4.00
2023-03-26T21:16:52.678Z,3.75
2023-03-26T21:19:20.566Z,4.25
2023-03-26T21:22:46.521Z,4.40
2023-03-26T21:26:02.272Z,3.22
2023-03-26T21:28:57.938Z,4.00
2023-03-26T21:31:26.843Z,5.38
2023-03-26T21:33:59.061Z,3.35
2023-03-26T21:36:27.489Z,3.78
2023-03-26T21:38:54.879Z,3.67
2023-03-26T21:41:23.575Z,2.92
2023-03-26T21:43:51.168Z,3.88
2023-03-26T21:46:18.957Z,3.78
2023-03-26T21:48:46.327Z,3.60
2023-03-26T21:51:15.326Z,2.92
2023-03-26T21:53:43.433Z,3.83
2023-03-26T21:57:02.148Z,3.35
2023-03-26T21:59:44.103Z,3.75
2023-03-26T22:02:17.710Z,3.17
2023-03-26T22:05:11.877Z,3.15
2023-03-26T22:07:56.023Z,2.75
2023-03-26T22:10:23.506Z,3.13
2023-03-26T22:12:51.640Z,3.08
2023-03-26T22:15:19.053Z,2.88
2023-03-26T22:17:53.768Z,2.22
2023-03-26T22:20:27.615Z,3.28
2023-03-26T22:22:55.272Z,3.00
2023-03-26T22:25:23.856Z,2.58
2023-03-26T22:27:51.741Z,2.83
2023-03-26T22:30:21.109Z,2.95
2023-03-26T22:32:48.917Z,3.20
2023-03-26T22:35:16.281Z,2.30
2023-03-26T22:37:43.252Z,2.97
2023-03-26T22:40:13.315Z,2.10
2023-03-26T22:42:41.768Z,3.67
2023-03-26T22:45:09.902Z,2.75
2023-03-26T22:47:37.465Z,2.40
2023-03-26T22:50:07.872Z,2.33
2023-03-26T22:52:36.810Z,2.22
2023-03-26T22:55:05.410Z,2.50
2023-03-26T22:57:32.666Z,2.30
2023-03-26T23:00:12.768Z,2.90
2023-03-26T23:02:42.151Z,2.53
2023-03-26T23:05:09.482Z,3.30
2023-03-26T23:07:37.916Z,2.42
2023-03-26T23:10:06.293Z,2.47
2023-03-26T23:12:33.262Z,2.22
2023-03-26T23:15:03.991Z,2.80
2023-03-26T23:17:34.524Z,2.53
2023-03-26T23:20:12.069Z,3.05
2023-03-26T23:22:39.095Z,2.95
2023-03-26T23:25:07.260Z,2.47
2023-03-26T23:27:35.875Z,2.05
2023-03-26T23:30:04.481Z,2.30
2023-03-26T23:32:31.763Z,2.88
2023-03-26T23:34:59.058Z,2.22
2023-03-26T23:37:26.036Z,2.85
2023-03-26T23:39:53.015Z,2.33
2023-03-26T23:42:28.563Z,2.85
2023-03-26T23:44:57.113Z,2.78
2023-03-26T23:47:24.624Z,2.58
2023-03-26T23:49:51.601Z,3.13
2023-03-26T23:52:19.274Z,2.50
2023-03-26T23:54:47.491Z,2.38
2023-03-26T23:57:14.326Z,2.38
2023-03-26T23:59:41.738Z,2.97
